createdAt,value
2019-05-10T00:01:32.603Z,100052.12
2019-05-10T00:04:06.307Z,100058.81
2019-05-10T00:06:40.030Z,100054.11
2019-05-10T00:09:13.749Z,100056.19
2019-05-10T00:11:49.387Z,100055.73
2019-05-10T00:14:22.881Z,100063.48
2019-05-10T00:16:56.583Z,100063.48
2019-05-10T00:19:30.295Z,100062.65
2019-05-10T00:22:04.005Z,100062.45
2019-05-10T00:24:37.738Z,100058.09
2019-05-10T00:27:11.457Z,100058.30
2019-05-10T00:29:45.196Z,100060.05
2019-05-10T00:32:18.912Z,100060.05
2019-05-10T00:34:52.613Z,100054.79
2019-05-10T00:37:26.332Z,100064.33
2019-05-10T00:40:00.245Z,100059.31
2019-05-10T00:42:33.955Z,100064.67
2019-05-10T00:45:07.655Z,100068.13
2019-05-10T00:47:41.847Z,100068.13
2019-05-10T00:50:15.574Z,100073.70
2019-05-10T00:52:49.287Z,100077.99
2019-05-10T00:55:23.004Z,100076.47
2019-05-10T00:57:56.707Z,100076.47
2019-05-10T01:00:30.423Z,100084.60
2019-05-10T01:03:04.136Z,100084.60
2019-05-10T01:05:37.853Z,100087.64
2019-05-10T01:08:11.584Z,100089.00
2019-05-10T01:10:45.284Z,100084.83
2019-05-10T01:13:18.987Z,100084.83
2019-05-10T01:15:52.796Z,100090.56
2019-05-10T01:18:26.500Z,100090.75
2019-05-10T01:21:00.231Z,100090.75
2019-05-10T01:23:33.940Z,100085.94
2019-05-10T01:26:07.657Z,100085.94
2019-05-10T01:28:41.396Z,100093.39
2019-05-10T01:31:15.100Z,100100.11
2019-05-10T01:33:49.399Z,100095.83
2019-05-10T01:36:23.272Z,100103.83
2019-05-10T01:38:56.986Z,100103.83
2019-05-10T01:41:30.684Z,100112.98
2019-05-10T01:44:04.418Z,100102.52
2019-05-10T01:46:38.136Z,100102.52
2019-05-10T01:49:11.846Z,100113.67
2019-05-10T01:51:45.947Z,100112.05
2019-05-10T01:54:19.649Z,100112.05
2019-05-10T01:56:53.373Z,100111.08
2019-05-10T01:59:27.085Z,100115.97
2019-05-10T02:02:00.782Z,100115.97
2019-05-10T02:04:34.969Z,100113.14
2019-05-10T02:07:08.703Z,100121.16
2019-05-10T02:09:42.563Z,100121.16
2019-05-10T02:12:16.279Z,100122.49
2019-05-10T02:14:49.986Z,100122.42
2019-05-10T02:17:23.942Z,100119.18
2019-05-10T02:19:57.661Z,100123.62
2019-05-10T02:22:31.379Z,100129.30
2019-05-10T02:25:05.661Z,100129.30
2019-05-10T02:27:39.387Z,100123.64
2019-05-10T02:30:13.582Z,100122.52
2019-05-10T02:32:47.298Z,100128.48
2019-05-10T02:35:21.005Z,100125.33
2019-05-10T02:37:54.712Z,100125.20
2019-05-10T02:40:28.455Z,100134.58
2019-05-10T02:43:02.169Z,100134.58
2019-05-10T02:45:35.904Z,100135.92
2019-05-10T02:48:09.619Z,100134.03
2019-05-10T02:50:43.381Z,100138.72
2019-05-10T02:53:17.080Z,100138.44
2019-05-10T02:55:51.092Z,100137.61
2019-05-10T02:58:24.879Z,100135.06
2019-05-10T03:00:59.952Z,100135.75
2019-05-10T03:03:33.665Z,100135.75
2019-05-10T03:06:07.364Z,100143.56
2019-05-10T03:08:46.610Z,100146.13
2019-05-10T03:11:20.401Z,100146.13
2019-05-10T03:13:54.099Z,100148.44
2019-05-10T03:16:27.811Z,100152.67
2019-05-10T03:19:01.526Z,100153.08
2019-05-10T03:21:35.774Z,100153.08
2019-05-10T03:24:09.493Z,100155.24
2019-05-10T03:26:51.069Z,100162.73
2019-05-10T03:29:18.612Z,100162.73
2019-05-10T03:31:52.316Z,100160.58
2019-05-10T03:34:26.041Z,100160.58
2019-05-10T03:36:59.779Z,100176.45
2019-05-10T03:39:33.520Z,100176.45
2019-05-10T03:42:07.215Z,100178.61
2019-05-10T03:44:40.938Z,100182.43
2019-05-10T03:47:14.642Z,100182.43
2019-05-10T03:49:48.351Z,100185.63
2019-05-10T03:52:22.104Z,100175.87
2019-05-10T03:54:55.879Z,100183.71
2019-05-10T03:57:29.612Z,100181.91
2019-05-10T04:00:06.222Z,100181.23
2019-05-10T04:02:39.971Z,100181.39
2019-05-10T04:05:13.872Z,100187.73
2019-05-10T04:07:47.650Z,100187.94
2019-05-10T04:10:21.446Z,100189.34
2019-05-10T04:12:55.148Z,100188.28
2019-05-10T04:15:28.861Z,100188.28
2019-05-10T04:18:02.581Z,100196.18
2019-05-10T04:20:36.292Z,100195.71
2019-05-10T04:23:10.041Z,100197.81
2019-05-10T04:25:43.759Z,100199.58
2019-05-10T04:28:17.452Z,100199.58
2019-05-10T04:30:51.159Z,100204.80
2019-05-10T04:33:24.901Z,100204.80
2019-05-10T04:35:58.599Z,100211.93
2019-05-10T04:38:32.321Z,100206.45
2019-05-10T04:41:06.024Z,100220.95
2019-05-10T04:43:39.742Z,100220.95
2019-05-10T04:46:13.456Z,100223.77
2019-05-10T04:48:47.177Z,100218.77
2019-05-10T04:51:20.893Z,100218.77
2019-05-10T04:53:54.598Z,100224.79
2019-05-10T04:56:28.307Z,100227.63
2019-05-10T04:59:02.040Z,100227.63
2019-05-10T05:01:35.760Z,100220.21
2019-05-10T05:04:09.482Z,100225.89
2019-05-10T05:06:43.192Z,100225.89
2019-05-10T05:09:16.912Z,100228.33
2019-05-10T05:11:50.635Z,100233.40
2019-05-10T05:14:24.348Z,100236.84
2019-05-10T05:16:58.114Z,100239.38
2019-05-10T05:19:32.041Z,100239.38
2019-05-10T05:22:05.802Z,100247.64
2019-05-10T05:24:39.520Z,100251.16
2019-05-10T05:27:17.937Z,100251.16
2019-05-10T05:29:51.667Z,100239.88
2019-05-10T05:32:25.382Z,100239.88
2019-05-10T05:34:59.086Z,100251.26
2019-05-10T05:37:32.802Z,100254.06
2019-05-10T05:40:07.248Z,100254.06
2019-05-10T05:42:40.980Z,100254.83
2019-05-10T05:45:14.756Z,100254.83
2019-05-10T05:47:51.016Z,100263.47
2019-05-10T05:50:24.707Z,100263.47
2019-05-10T05:52:58.428Z,100260.72
2019-05-10T05:55:32.346Z,100271.14
2019-05-10T05:58:08.676Z,100278.41
2019-05-10T06:00:44.687Z,100278.41
2019-05-10T06:03:19.403Z,100280.91
2019-05-10T06:05:52.378Z,100291.15
2019-05-10T06:08:26.101Z,100305.84
2019-05-10T06:11:00.249Z,100304.02
2019-05-10T06:13:34.106Z,100309.23
2019-05-10T06:16:12.781Z,100308.11
2019-05-10T06:18:47.383Z,100320.83
2019-05-10T06:21:24.822Z,100320.83
2019-05-10T06:23:54.062Z,100323.14
2019-05-10T06:26:28.793Z,100340.09
2019-05-10T06:29:04.546Z,100340.09
2019-05-10T06:31:38.087Z,100346.88
2019-05-10T06:34:11.830Z,100351.86
2019-05-10T06:36:45.552Z,100351.86
2019-05-10T06:39:19.244Z,100364.92
2019-05-10T06:41:55.982Z,100369.12
2019-05-10T06:44:31.250Z,100369.12
2019-05-10T06:47:08.247Z,100375.28
2019-05-10T06:49:41.032Z,100380.84
2019-05-10T06:52:16.358Z,100385.38
2019-05-10T06:54:50.423Z,100384.48
2019-05-10T06:57:24.143Z,100397.08
2019-05-10T07:00:06.224Z,100397.77
2019-05-10T07:02:33.263Z,100410.00
2019-05-10T07:05:06.972Z,100415.11
2019-05-10T07:07:44.710Z,100423.05
2019-05-10T07:10:19.491Z,100423.05
2019-05-10T07:12:56.996Z,100444.86
2019-05-10T07:15:26.930Z,100444.86
2019-05-10T07:18:00.690Z,100446.83
2019-05-10T07:20:34.448Z,100448.64
2019-05-10T07:23:08.168Z,100459.08
2019-05-10T07:25:44.026Z,100464.72
2019-05-10T07:28:17.823Z,100464.72
2019-05-10T07:30:51.650Z,100470.38
2019-05-10T07:33:25.366Z,100470.38
2019-05-10T07:35:59.075Z,100477.66
2019-05-10T07:38:32.929Z,100482.51
2019-05-10T07:41:06.786Z,100482.51
2019-05-10T07:43:40.754Z,100486.92
2019-05-10T07:46:14.463Z,100482.55
2019-05-10T07:48:53.518Z,100497.55
2019-05-10T07:51:28.845Z,100492.33
2019-05-10T07:54:04.497Z,100492.33
2019-05-10T07:56:38.931Z,100496.22
2019-05-10T07:59:09.849Z,100502.73
2019-05-10T08:01:43.581Z,100507.61
2019-05-10T08:04:25.232Z,100507.61
2019-05-10T08:06:52.691Z,100522.27
2019-05-10T08:09:26.424Z,100522.27
2019-05-10T08:12:04.877Z,100529.56
2019-05-10T08:14:35.544Z,100537.89
2019-05-10T08:17:09.259Z,100542.36
2019-05-10T08:19:42.977Z,100543.27
2019-05-10T08:22:16.691Z,100546.09
2019-05-10T08:24:52.652Z,100554.06
2019-05-10T08:27:25.814Z,100554.44
2019-05-10T08:30:17.802Z,100554.44
2019-05-10T08:32:35.150Z,100569.41
2019-05-10T08:35:15.956Z,100572.13
2019-05-10T08:37:44.452Z,100575.75
2019-05-10T08:40:19.833Z,100575.75
2019-05-10T08:43:03.199Z,100586.30
2019-05-10T08:45:28.993Z,100594.88
2019-05-10T08:48:06.920Z,100601.03
2019-05-10T08:50:49.687Z,100601.03
2019-05-10T08:53:16.422Z,100596.91
2019-05-10T08:55:49.300Z,100601.74
2019-05-10T08:58:31.394Z,100614.21
2019-05-10T09:01:12.123Z,100612.44
2019-05-10T09:03:33.855Z,100612.44
2019-05-10T09:06:12.020Z,100613.64
2019-05-10T09:08:43.318Z,100620.55
2019-05-10T09:11:17.107Z,100635.97
2019-05-10T09:13:53.168Z,100635.97
2019-05-10T09:16:29.097Z,100633.03
2019-05-10T09:19:02.579Z,100633.03
2019-05-10T09:21:40.956Z,100640.47
2019-05-10T09:24:12.935Z,100640.47
2019-05-10T09:26:51.615Z,100650.76
2019-05-10T09:29:22.078Z,100650.76
2019-05-10T09:31:55.799Z,100647.11
2019-05-10T09:34:29.523Z,100663.48
2019-05-10T09:37:08.216Z,100667.23
2019-05-10T09:39:38.615Z,100662.41
2019-05-10T09:42:24.963Z,100662.41
2019-05-10T09:44:48.322Z,100668.86
2019-05-10T09:47:22.270Z,100670.16
2019-05-10T09:49:58.747Z,100675.72
2019-05-10T09:52:31.438Z,100679.27
2019-05-10T09:55:12.470Z,100679.27
2019-05-10T09:57:41.045Z,100688.63
2019-05-10T10:00:17.386Z,100691.42
2019-05-10T10:02:56.402Z,100691.78
2019-05-10T10:05:25.736Z,100691.78
2019-05-10T10:08:03.575Z,100711.41
2019-05-10T10:10:39.153Z,100709.56
2019-05-10T10:13:33.983Z,100712.81
2019-05-10T10:15:53.065Z,100712.81
2019-05-10T10:18:28.757Z,100717.82
2019-05-10T10:21:03.265Z,100717.82
2019-05-10T10:23:37.722Z,100719.92
2019-05-10T10:26:12.564Z,100715.98
2019-05-10T10:28:49.729Z,100720.06
2019-05-10T10:31:29.555Z,100722.55
2019-05-10T10:34:00.343Z,100722.55
2019-05-10T10:36:33.263Z,100727.66
2019-05-10T10:39:07.569Z,100731.02
2019-05-10T10:41:41.323Z,100731.02
2019-05-10T10:44:15.052Z,100733.75
2019-05-10T10:46:48.743Z,100735.78
2019-05-10T10:49:23.061Z,100735.78
2019-05-10T10:51:57.871Z,100737.84
2019-05-10T10:54:36.478Z,100738.46
2019-05-10T10:57:08.057Z,100747.08
2019-05-10T10:59:41.914Z,100754.19
2019-05-10T11:02:31.369Z,100755.77
2019-05-10T11:04:51.030Z,100755.77
2019-05-10T11:07:24.723Z,100755.56
2019-05-10T11:10:08.151Z,100761.23
2019-05-10T11:12:33.838Z,100764.44
2019-05-10T11:15:07.547Z,100773.42
2019-05-10T11:17:41.254Z,100773.42
2019-05-10T11:20:14.968Z,100781.66
2019-05-10T11:22:51.717Z,100781.76
2019-05-10T11:25:24.084Z,100788.25
2019-05-10T11:27:59.216Z,100785.41
2019-05-10T11:30:33.198Z,100782.65
2019-05-10T11:33:15.486Z,100781.61
2019-05-10T11:35:42.282Z,100781.61
2019-05-10T11:38:16.332Z,100781.85
2019-05-10T11:40:50.196Z,100778.98
2019-05-10T11:43:27.049Z,100778.98
2019-05-10T11:45:59.374Z,100791.59
2019-05-10T11:48:37.394Z,100784.89
2019-05-10T11:51:12.281Z,100791.34
2019-05-10T11:53:48.901Z,100793.44
2019-05-10T11:56:25.042Z,100788.29
2019-05-10T11:58:55.537Z,100788.29
2019-05-10T12:01:29.495Z,100790.27
2019-05-10T12:04:05.149Z,100793.33
2019-05-10T12:06:41.367Z,100789.89
2019-05-10T12:09:14.005Z,100796.84
2019-05-10T12:11:56.621Z,100793.97
2019-05-10T12:14:23.136Z,100795.70
2019-05-10T12:16:56.880Z,100790.86
2019-05-10T12:19:36.891Z,100790.86
2019-05-10T12:22:05.985Z,100796.39
2019-05-10T12:24:54.003Z,100803.00
2019-05-10T12:27:25.402Z,100810.28
2019-05-10T12:29:55.442Z,100800.95
2019-05-10T12:32:26.967Z,100807.64
2019-05-10T12:35:01.565Z,100807.64
2019-05-10T12:37:39.412Z,100811.61
2019-05-10T12:40:14.864Z,100809.71
2019-05-10T12:42:47.140Z,100809.71
2019-05-10T12:45:23.364Z,100812.06
2019-05-10T12:47:56.572Z,100812.06
2019-05-10T12:50:30.274Z,100815.70
2019-05-10T12:53:14.314Z,100825.62
2019-05-10T12:55:39.393Z,100816.36
2019-05-10T12:58:13.896Z,100816.36
2019-05-10T13:00:52.496Z,100827.53
2019-05-10T13:03:25.260Z,100828.47
2019-05-10T13:05:58.358Z,100828.47
2019-05-10T13:08:32.054Z,100834.53
2019-05-10T13:11:05.744Z,100840.80
2019-05-10T13:13:39.461Z,100848.33
2019-05-10T13:16:13.186Z,100848.33
2019-05-10T13:18:51.819Z,100851.33
2019-05-10T13:21:23.174Z,100858.45
2019-05-10T13:23:57.041Z,100865.95
2019-05-10T13:26:30.754Z,100865.95
2019-05-10T13:29:08.270Z,100867.94
2019-05-10T13:31:44.079Z,100873.16
2019-05-10T13:34:15.282Z,100870.95
2019-05-10T13:36:49.005Z,100864.32
2019-05-10T13:39:25.537Z,100862.20
2019-05-10T13:42:03.172Z,100869.17
2019-05-10T13:44:37.009Z,100869.17
2019-05-10T13:47:09.013Z,100876.32
2019-05-10T13:49:42.722Z,100876.32
2019-05-10T13:52:16.628Z,100876.16
2019-05-10T13:54:50.320Z,100877.73
2019-05-10T13:57:24.197Z,100880.20
2019-05-10T13:59:57.889Z,100877.09
2019-05-10T14:02:34.353Z,100877.59
2019-05-10T14:05:11.797Z,100877.59
2019-05-10T14:07:50.329Z,100882.77
2019-05-10T14:10:22.796Z,100882.33
2019-05-10T14:12:55.922Z,100882.33
2019-05-10T14:15:28.653Z,100893.17
2019-05-10T14:18:02.361Z,100895.29
2019-05-10T14:20:36.067Z,100895.29
2019-05-10T14:23:09.829Z,100906.78
2019-05-10T14:25:43.535Z,100902.16
2019-05-10T14:28:17.466Z,100902.16
2019-05-10T14:30:57.047Z,100903.53
2019-05-10T14:33:26.663Z,100901.58
2019-05-10T14:36:02.766Z,100908.24
2019-05-10T14:38:35.856Z,100905.83
2019-05-10T14:41:11.617Z,100905.66
2019-05-10T14:43:44.987Z,100907.98
2019-05-10T14:46:18.696Z,100907.98
2019-05-10T14:48:52.398Z,100908.95
2019-05-10T14:51:40.376Z,100908.95
2019-05-10T14:54:06.457Z,100916.38
2019-05-10T14:56:36.910Z,100916.47
2019-05-10T14:59:10.614Z,100916.19
2019-05-10T15:01:45.513Z,100916.19
2019-05-10T15:04:43.838Z,100922.78
2019-05-10T15:06:54.902Z,100913.06
2019-05-10T15:09:28.605Z,100920.98
2019-05-10T15:12:02.310Z,100920.39
2019-05-10T15:14:36.030Z,100916.52
2019-05-10T15:17:09.730Z,100916.52
2019-05-10T15:19:56.519Z,100917.80
2019-05-10T15:22:22.984Z,100919.58
2019-05-10T15:24:54.314Z,100919.58
2019-05-10T15:27:28.139Z,100921.58
2019-05-10T15:30:05.155Z,100932.13
2019-05-10T15:32:37.638Z,100931.94
2019-05-10T15:35:11.535Z,100929.14
2019-05-10T15:37:48.301Z,100938.01
2019-05-10T15:40:21.037Z,100939.48
2019-05-10T15:42:56.507Z,100939.48
2019-05-10T15:45:30.450Z,100940.06
2019-05-10T15:48:04.613Z,100935.98
2019-05-10T15:50:41.225Z,100928.37
2019-05-10T15:53:19.566Z,100932.81
2019-05-10T15:55:52.335Z,100932.81
2019-05-10T15:58:30.576Z,100929.61
2019-05-10T16:01:01.700Z,100936.89
2019-05-10T16:03:40.149Z,100936.89
2019-05-10T16:06:15.680Z,100953.36
2019-05-10T16:08:49.599Z,100935.27
2019-05-10T16:11:25.169Z,100944.45
2019-05-10T16:14:00.114Z,100944.45
2019-05-10T16:16:37.248Z,100950.58
2019-05-10T16:19:12.934Z,100939.07
2019-05-10T16:21:46.553Z,100946.14
2019-05-10T16:24:26.146Z,100946.14
2019-05-10T16:27:00.007Z,100944.77
2019-05-10T16:29:33.653Z,100944.77
2019-05-10T16:32:06.824Z,100952.23
2019-05-10T16:34:40.569Z,100952.23
2019-05-10T16:37:14.271Z,100946.80
2019-05-10T16:39:47.980Z,100947.18
2019-05-10T16:42:21.822Z,100948.11
2019-05-10T16:44:55.595Z,100948.11
2019-05-10T16:47:29.321Z,100950.45
2019-05-10T16:50:07.194Z,100944.61
2019-05-10T16:52:40.886Z,100943.01
2019-05-10T16:55:14.593Z,100943.01
2019-05-10T16:57:48.297Z,100951.86
2019-05-10T17:00:22.287Z,100948.52
2019-05-10T17:02:56.001Z,100948.52
2019-05-10T17:05:29.709Z,100947.01
2019-05-10T17:08:03.401Z,100944.59
2019-05-10T17:10:37.135Z,100949.48
2019-05-10T17:13:10.825Z,100944.98
2019-05-10T17:15:44.534Z,100949.52
2019-05-10T17:18:19.966Z,100953.53
2019-05-10T17:20:53.688Z,100951.63
2019-05-10T17:23:27.391Z,100944.59
2019-05-10T17:26:01.118Z,100944.59
2019-05-10T17:28:37.256Z,100945.75
2019-05-10T17:31:10.246Z,100944.39
2019-05-10T17:33:44.382Z,100949.98
2019-05-10T17:36:19.885Z,100948.59
2019-05-10T17:38:55.486Z,100945.64
2019-05-10T17:41:28.978Z,100949.48
2019-05-10T17:44:02.715Z,100949.48
2019-05-10T17:46:36.404Z,100942.42
2019-05-10T17:49:10.130Z,100942.42
2019-05-10T17:51:43.853Z,100939.33
2019-05-10T17:54:17.543Z,100947.34
2019-05-10T17:56:51.255Z,100944.51
2019-05-10T17:59:24.961Z,100939.35
2019-05-10T18:01:58.672Z,100939.84
2019-05-10T18:04:32.353Z,100940.94
2019-05-10T18:07:06.088Z,100940.94
2019-05-10T18:09:39.789Z,100941.91
2019-05-10T18:14:55.959Z,100933.22
2019-05-10T18:17:27.710Z,100947.92
2019-05-10T18:20:02.377Z,100939.91
2019-05-10T18:22:43.471Z,100939.91
2019-05-10T18:25:19.429Z,100954.05
2019-05-10T18:27:47.157Z,100947.58
2019-05-10T18:30:20.867Z,100951.51
2019-05-10T18:32:54.569Z,100956.44
2019-05-10T18:35:28.259Z,100955.23
2019-05-10T18:38:02.014Z,100955.23
2019-05-10T18:40:35.712Z,100958.03
2019-05-10T18:43:09.381Z,100958.03
2019-05-10T18:45:43.083Z,100961.71
2019-05-10T18:48:16.829Z,100963.09
2019-05-10T18:50:50.561Z,100963.09
2019-05-10T18:53:24.279Z,100963.84
2019-05-10T18:55:57.988Z,100965.95
2019-05-10T18:58:31.759Z,100958.86
2019-05-10T19:01:05.446Z,100962.09
2019-05-10T19:03:39.174Z,100962.09
2019-05-10T19:06:13.569Z,100974.24
2019-05-10T19:08:47.545Z,100973.33
2019-05-10T19:11:21.352Z,100979.45
2019-05-10T19:13:55.180Z,100979.45
2019-05-10T19:16:32.139Z,100986.00
2019-05-10T19:19:04.360Z,100983.48
2019-05-10T19:21:38.363Z,100988.19
2019-05-10T19:24:12.277Z,100988.19
2019-05-10T19:26:45.978Z,100995.73
2019-05-10T19:29:19.691Z,100990.94
2019-05-10T19:31:53.406Z,100990.94
2019-05-10T19:34:27.124Z,101003.69
2019-05-10T19:37:00.835Z,101007.64
2019-05-10T19:39:34.588Z,101007.64
2019-05-10T19:42:08.337Z,101016.59
2019-05-10T19:44:42.287Z,101017.80
2019-05-10T19:47:17.625Z,101017.80
2019-05-10T19:49:53.297Z,101026.70
2019-05-10T19:52:27.884Z,101031.21
2019-05-10T19:55:01.690Z,101027.34
2019-05-10T19:57:35.411Z,101027.34
2019-05-10T20:00:09.109Z,101034.91
2019-05-10T20:02:42.821Z,101032.06
2019-05-10T20:05:16.538Z,101039.89
2019-05-10T20:07:50.269Z,101038.94
2019-05-10T20:10:23.990Z,101046.78
2019-05-10T20:12:57.729Z,101054.77
2019-05-10T20:15:31.429Z,101059.50
2019-05-10T20:18:05.477Z,101062.09
2019-05-10T20:20:39.361Z,101074.04
2019-05-10T20:23:13.735Z,101074.04
2019-05-10T20:25:47.451Z,101079.59
2019-05-10T20:28:21.170Z,101089.30
2019-05-10T20:30:54.897Z,101088.25
2019-05-10T20:33:28.591Z,101093.71
2019-05-10T20:36:02.292Z,101095.52
2019-05-10T20:38:36.009Z,101091.69
2019-05-10T20:41:09.708Z,101091.69
2019-05-10T20:43:43.423Z,101087.95
2019-05-10T20:46:17.143Z,101087.95
2019-05-10T20:48:50.867Z,101072.05
2019-05-10T20:51:24.580Z,101066.30
2019-05-10T20:53:58.283Z,101062.77
2019-05-10T20:56:32.012Z,101059.98
2019-05-10T20:59:05.730Z,101068.89
2019-05-10T21:01:39.452Z,101067.13
2019-05-10T21:04:13.144Z,101070.39
2019-05-10T21:06:46.839Z,101070.39
2019-05-10T21:09:20.547Z,101066.22
2019-05-10T21:11:54.274Z,101060.59
2019-05-10T21:14:28.072Z,101055.14
2019-05-10T21:17:01.796Z,101046.45
2019-05-10T21:19:35.530Z,101046.45
2019-05-10T21:22:09.231Z,101052.72
2019-05-10T21:24:42.938Z,101053.20
2019-05-10T21:27:22.533Z,101053.73
2019-05-10T21:29:52.621Z,101052.62
2019-05-10T21:32:28.960Z,101052.62
2019-05-10T21:35:02.678Z,101051.91
2019-05-10T21:37:36.474Z,101054.76
2019-05-10T21:40:10.204Z,101054.76
2019-05-10T21:42:43.899Z,101061.80
2019-05-10T21:45:17.626Z,101062.33
2019-05-10T21:47:52.082Z,101064.16
2019-05-10T21:50:25.940Z,101068.16
2019-05-10T21:52:59.669Z,101069.62
2019-05-10T21:55:33.382Z,101069.62
2019-05-10T21:58:07.080Z,101073.51
2019-05-10T22:00:40.795Z,101075.70
2019-05-10T22:03:14.508Z,101075.70
2019-05-10T22:05:48.215Z,101078.94
2019-05-10T22:08:21.955Z,101085.28
2019-05-10T22:10:55.687Z,101082.19
2019-05-10T22:13:29.560Z,101082.19
2019-05-10T22:16:03.248Z,101082.56
2019-05-10T22:18:36.984Z,101082.56
2019-05-10T22:21:10.697Z,101075.41
2019-05-10T22:23:44.411Z,101071.76
2019-05-10T22:26:18.130Z,101072.96
2019-05-10T22:28:51.836Z,101064.98
2019-05-10T22:31:25.552Z,101066.18
2019-05-10T22:33:59.229Z,101068.92
2019-05-10T22:36:32.938Z,101069.15
2019-05-10T22:39:07.762Z,101070.26
2019-05-10T22:41:41.771Z,101070.26
2019-05-10T22:44:15.512Z,101077.82
2019-05-10T22:46:49.223Z,101076.27
2019-05-10T22:49:22.940Z,101083.81
2019-05-10T22:51:56.675Z,101076.28
2019-05-10T22:54:30.734Z,101076.28
2019-05-10T22:57:04.458Z,101080.20
2019-05-10T22:59:38.150Z,101068.91
2019-05-10T23:02:11.867Z,101063.93
2019-05-10T23:04:45.566Z,101063.93
2019-05-10T23:07:19.365Z,101060.19
2019-05-10T23:09:53.082Z,101060.05
2019-05-10T23:12:26.796Z,101052.17
2019-05-10T23:15:00.515Z,101059.44
2019-05-10T23:17:34.228Z,101059.44
2019-05-10T23:20:07.940Z,101062.53
2019-05-10T23:22:41.629Z,101070.87
2019-05-10T23:25:15.322Z,101069.34
2019-05-10T23:27:49.074Z,101069.34
2019-05-10T23:30:22.863Z,101066.27
2019-05-10T23:32:56.579Z,101062.48
2019-05-10T23:35:30.310Z,101061.20
2019-05-10T23:38:04.017Z,101061.20
2019-05-10T23:40:37.730Z,101054.58
2019-05-10T23:43:11.451Z,101050.67
2019-05-10T23:45:45.150Z,101050.67
2019-05-10T23:48:18.889Z,101046.51
2019-05-10T23:50:52.608Z,101048.40
2019-05-10T23:53:26.340Z,101048.40
2019-05-10T23:56:00.062Z,101040.95
2019-05-10T23:58:33.792Z,101040.95
